sensor_id;sensor_type;location;lat;lon;timestamp;P1;durP1;ratioP1;P2;durP2;ratioP2
65162;SDS011;51751;55.714;37.436;2023-02-26T00:00:54;18.88;;;10.27;;
65162;SDS011;51751;55.714;37.436;2023-02-26T00:03:21;17.63;;;9.45;;
65162;SDS011;51751;55.714;37.436;2023-02-26T00:05:47;23.40;;;11.15;;
65162;SDS011;51751;55.714;37.436;2023-02-26T00:08:12;20.73;;;10.13;;
65162;SDS011;51751;55.714;37.436;2023-02-26T00:10:38;15.02;;;9.38;;
65162;SDS011;51751;55.714;37.436;2023-02-26T00:13:04;19.23;;;10.75;;
65162;SDS011;51751;55.714;37.436;2023-02-26T00:15:30;17.23;;;9.85;;
65162;SDS011;51751;55.714;37.436;2023-02-26T00:20:31;16.17;;;8.82;;
65162;SDS011;51751;55.714;37.436;2023-02-26T00:22:57;17.10;;;8.93;;
65162;SDS011;51751;55.714;37.436;2023-02-26T00:25:23;16.85;;;8.35;;
65162;SDS011;51751;55.714;37.436;2023-02-26T00:27:49;14.10;;;6.97;;
65162;SDS011;51751;55.714;37.436;2023-02-26T00:30:16;14.05;;;8.05;;
65162;SDS011;51751;55.714;37.436;2023-02-26T00:32:42;11.55;;;7.13;;
65162;SDS011;51751;55.714;37.436;2023-02-26T00:35:13;13.20;;;6.90;;
65162;SDS011;51751;55.714;37.436;2023-02-26T00:37:54;13.23;;;7.03;;
65162;SDS011;51751;55.714;37.436;2023-02-26T00:40:47;15.70;;;7.25;;
65162;SDS011;51751;55.714;37.436;2023-02-26T00:43:18;9.60;;;6.03;;
65162;SDS011;51751;55.714;37.436;2023-02-26T00:51:26;11.07;;;6.75;;
65162;SDS011;51751;55.714;37.436;2023-02-26T00:54:14;10.27;;;6.50;;
65162;SDS011;51751;55.714;37.436;2023-02-26T00:56:41;9.75;;;6.07;;
65162;SDS011;51751;55.714;37.436;2023-02-26T00:59:07;11.27;;;6.22;;
65162;SDS011;51751;55.714;37.436;2023-02-26T01:04:42;9.30;;;5.82;;
65162;SDS011;51751;55.714;37.436;2023-02-26T01:07:08;8.90;;;6.18;;
65162;SDS011;51751;55.714;37.436;2023-02-26T01:09:35;7.60;;;4.95;;
65162;SDS011;51751;55.714;37.436;2023-02-26T01:12:03;11.15;;;5.70;;
65162;SDS011;51751;55.714;37.436;2023-02-26T01:14:34;9.50;;;4.95;;
65162;SDS011;51751;55.714;37.436;2023-02-26T01:19:51;8.85;;;5.30;;
65162;SDS011;51751;55.714;37.436;2023-02-26T01:22:53;8.05;;;4.75;;
65162;SDS011;51751;55.714;37.436;2023-02-26T01:25:38;7.32;;;4.22;;
65162;SDS011;51751;55.714;37.436;2023-02-26T01:28:06;9.07;;;5.07;;
65162;SDS011;51751;55.714;37.436;2023-02-26T01:30:33;8.35;;;4.82;;
65162;SDS011;51751;55.714;37.436;2023-02-26T01:33:10;7.03;;;4.40;;
65162;SDS011;51751;55.714;37.436;2023-02-26T01:35:46;5.80;;;3.80;;
65162;SDS011;51751;55.714;37.436;2023-02-26T01:48:47;4.18;;;2.85;;
65162;SDS011;51751;55.714;37.436;2023-02-26T01:51:15;4.32;;;2.90;;
65162;SDS011;51751;55.714;37.436;2023-02-26T01:53:41;4.47;;;2.75;;
65162;SDS011;51751;55.714;37.436;2023-02-26T01:56:17;3.47;;;2.50;;
65162;SDS011;51751;55.714;37.436;2023-02-26T01:59:03;4.18;;;2.78;;
65162;SDS011;51751;55.714;37.436;2023-02-26T02:01:37;3.33;;;2.40;;
65162;SDS011;51751;55.714;37.436;2023-02-26T02:04:04;5.45;;;3.00;;
65162;SDS011;51751;55.714;37.436;2023-02-26T02:06:33;3.80;;;2.42;;
65162;SDS011;51751;55.714;37.436;2023-02-26T02:08:59;4.07;;;2.50;;
65162;SDS011;51751;55.714;37.436;2023-02-26T02:11:27;3.53;;;2.20;;
65162;SDS011;51751;55.714;37.436;2023-02-26T02:28:45;2.83;;;2.30;;
65162;SDS011;51751;55.714;37.436;2023-02-26T02:31:32;3.75;;;2.60;;
65162;SDS011;51751;55.714;37.436;2023-02-26T02:37:05;3.20;;;2.40;;
65162;SDS011;51751;55.714;37.436;2023-02-26T02:40:06;4.28;;;2.53;;
65162;SDS011;51751;55.714;37.436;2023-02-26T02:42:46;4.10;;;2.45;;
65162;SDS011;51751;55.714;37.436;2023-02-26T02:45:18;2.35;;;1.92;;
65162;SDS011;51751;55.714;37.436;2023-02-26T02:47:49;2.65;;;2.00;;
65162;SDS011;51751;55.714;37.436;2023-02-26T02:50:31;2.80;;;2.00;;
65162;SDS011;51751;55.714;37.436;2023-02-26T02:53:01;2.85;;;1.85;;
65162;SDS011;51751;55.714;37.436;2023-02-26T02:56:00;3.08;;;2.15;;
65162;SDS011;51751;55.714;37.436;2023-02-26T02:58:39;2.53;;;1.92;;
65162;SDS011;51751;55.714;37.436;2023-02-26T03:01:08;2.10;;;1.70;;
65162;SDS011;51751;55.714;37.436;2023-02-26T03:03:38;2.03;;;1.63;;
65162;SDS011;51751;55.714;37.436;2023-02-26T03:06:09;2.08;;;1.77;;
65162;SDS011;51751;55.714;37.436;2023-02-26T03:08:37;2.08;;;1.77;;
65162;SDS011;51751;55.714;37.436;2023-02-26T03:11:07;2.25;;;1.80;;
65162;SDS011;51751;55.714;37.436;2023-02-26T03:13:34;2.75;;;2.10;;
65162;SDS011;51751;55.714;37.436;2023-02-26T03:16:34;2.55;;;1.90;;
65162;SDS011;51751;55.714;37.436;2023-02-26T03:21:46;2.97;;;1.90;;
65162;SDS011;51751;55.714;37.436;2023-02-26T03:24:26;3.10;;;2.10;;
65162;SDS011;51751;55.714;37.436;2023-02-26T03:30:38;3.78;;;2.38;;
65162;SDS011;51751;55.714;37.436;2023-02-26T03:35:44;5.13;;;3.15;;
65162;SDS011;51751;55.714;37.436;2023-02-26T03:38:41;5.50;;;3.90;;
65162;SDS011;51751;55.714;37.436;2023-02-26T03:41:19;6.35;;;3.55;;
65162;SDS011;51751;55.714;37.436;2023-02-26T03:43:55;5.55;;;3.95;;
65162;SDS011;51751;55.714;37.436;2023-02-26T03:46:36;4.22;;;3.30;;
65162;SDS011;51751;55.714;37.436;2023-02-26T03:49:25;9.13;;;5.90;;
65162;SDS011;51751;55.714;37.436;2023-02-26T03:51:54;5.63;;;4.43;;
65162;SDS011;51751;55.714;37.436;2023-02-26T03:54:42;8.15;;;4.10;;
65162;SDS011;51751;55.714;37.436;2023-02-26T03:57:33;5.93;;;4.10;;
65162;SDS011;51751;55.714;37.436;2023-02-26T04:00:17;9.90;;;3.67;;
65162;SDS011;51751;55.714;37.436;2023-02-26T04:05:34;7.55;;;5.07;;
65162;SDS011;51751;55.714;37.436;2023-02-26T04:08:02;8.30;;;3.67;;
65162;SDS011;51751;55.714;37.436;2023-02-26T04:10:32;5.60;;;3.03;;
65162;SDS011;51751;55.714;37.436;2023-02-26T04:13:23;5.80;;;2.83;;
65162;SDS011;51751;55.714;37.436;2023-02-26T04:15:50;7.03;;;3.63;;
65162;SDS011;51751;55.714;37.436;2023-02-26T04:18:17;5.72;;;3.30;;
65162;SDS011;51751;55.714;37.436;2023-02-26T04:20:43;5.22;;;3.33;;
65162;SDS011;51751;55.714;37.436;2023-02-26T04:23:10;4.00;;;2.30;;
65162;SDS011;51751;55.714;37.436;2023-02-26T04:25:38;3.80;;;2.60;;
65162;SDS011;51751;55.714;37.436;2023-02-26T04:28:04;2.83;;;2.00;;
65162;SDS011;51751;55.714;37.436;2023-02-26T04:30:31;3.22;;;2.53;;
65162;SDS011;51751;55.714;37.436;2023-02-26T04:32:58;3.60;;;2.00;;
65162;SDS011;51751;55.714;37.436;2023-02-26T04:35:24;3.70;;;2.50;;
65162;SDS011;51751;55.714;37.436;2023-02-26T04:37:50;2.45;;;2.08;;
65162;SDS011;51751;55.714;37.436;2023-02-26T04:40:16;4.35;;;2.60;;
65162;SDS011;51751;55.714;37.436;2023-02-26T04:42:42;1.88;;;1.63;;
65162;SDS011;51751;55.714;37.436;2023-02-26T04:45:09;2.85;;;2.40;;
65162;SDS011;51751;55.714;37.436;2023-02-26T04:47:37;2.92;;;2.05;;
65162;SDS011;51751;55.714;37.436;2023-02-26T04:50:03;3.78;;;2.45;;
65162;SDS011;51751;55.714;37.436;2023-02-26T04:52:33;2.55;;;1.73;;
65162;SDS011;51751;55.714;37.436;2023-02-26T04:54:59;3.20;;;2.15;;
65162;SDS011;51751;55.714;37.436;2023-02-26T04:57:25;2.80;;;2.10;;
65162;SDS011;51751;55.714;37.436;2023-02-26T04:59:54;3.50;;;2.38;;
65162;SDS011;51751;55.714;37.436;2023-02-26T05:02:22;3.92;;;2.42;;
65162;SDS011;51751;55.714;37.436;2023-02-26T05:04:50;2.70;;;1.92;;
65162;SDS011;51751;55.714;37.436;2023-02-26T05:07:16;1.90;;;1.60;;
65162;SDS011;51751;55.714;37.436;2023-02-26T05:09:42;2.83;;;1.73;;
65162;SDS011;51751;55.714;37.436;2023-02-26T05:12:11;3.40;;;2.00;;
65162;SDS011;51751;55.714;37.436;2023-02-26T05:14:37;2.00;;;1.60;;
65162;SDS011;51751;55.714;37.436;2023-02-26T05:17:03;2.58;;;1.63;;
65162;SDS011;51751;55.714;37.436;2023-02-26T05:19:29;2.03;;;1.50;;
65162;SDS011;51751;55.714;37.436;2023-02-26T05:21:55;2.13;;;1.83;;
65162;SDS011;51751;55.714;37.436;2023-02-26T05:24:21;5.70;;;2.00;;
65162;SDS011;51751;55.714;37.436;2023-02-26T05:26:47;1.67;;;1.55;;
65162;SDS011;51751;55.714;37.436;2023-02-26T05:29:13;2.10;;;1.45;;
65162;SDS011;51751;55.714;37.436;2023-02-26T05:31:39;2.83;;;1.40;;
65162;SDS011;51751;55.714;37.436;2023-02-26T05:34:23;6.22;;;1.45;;
65162;SDS011;51751;55.714;37.436;2023-02-26T05:36:49;1.48;;;1.38;;
65162;SDS011;51751;55.714;37.436;2023-02-26T05:39:15;10.68;;;1.55;;
65162;SDS011;51751;55.714;37.436;2023-02-26T05:42:00;11.52;;;1.42;;
65162;SDS011;51751;55.714;37.436;2023-02-26T05:44:26;2.85;;;1.40;;
65162;SDS011;51751;55.714;37.436;2023-02-26T05:46:52;4.60;;;1.27;;
65162;SDS011;51751;55.714;37.436;2023-02-26T05:49:17;1.92;;;1.17;;
65162;SDS011;51751;55.714;37.436;2023-02-26T05:51:46;1.63;;;1.25;;
65162;SDS011;51751;55.714;37.436;2023-02-26T05:54:15;4.10;;;1.50;;
65162;SDS011;51751;55.714;37.436;2023-02-26T05:56:41;2.72;;;1.08;;
65162;SDS011;51751;55.714;37.436;2023-02-26T05:59:26;4.72;;;1.60;;
65162;SDS011;51751;55.714;37.436;2023-02-26T06:01:51;1.17;;;0.98;;
65162;SDS011;51751;55.714;37.436;2023-02-26T06:04:17;3.88;;;1.30;;
65162;SDS011;51751;55.714;37.436;2023-02-26T06:07:02;3.03;;;1.27;;
65162;SDS011;51751;55.714;37.436;2023-02-26T06:09:29;2.13;;;1.17;;
65162;SDS011;51751;55.714;37.436;2023-02-26T06:11:55;2.28;;;1.42;;
65162;SDS011;51751;55.714;37.436;2023-02-26T06:14:21;4.80;;;1.70;;
65162;SDS011;51751;55.714;37.436;2023-02-26T06:16:47;12.82;;;2.33;;
65162;SDS011;51751;55.714;37.436;2023-02-26T06:19:43;7.45;;;1.70;;
65162;SDS011;51751;55.714;37.436;2023-02-26T06:22:15;1.48;;;1.25;;
65162;SDS011;51751;55.714;37.436;2023-02-26T06:24:41;1.73;;;1.40;;
65162;SDS011;51751;55.714;37.436;2023-02-26T06:27:10;1.50;;;1.40;;
65162;SDS011;51751;55.714;37.436;2023-02-26T06:29:36;3.05;;;1.60;;
65162;SDS011;51751;55.714;37.436;2023-02-26T06:32:02;3.08;;;1.40;;
65162;SDS011;51751;55.714;37.436;2023-02-26T06:34:29;2.67;;;1.45;;
65162;SDS011;51751;55.714;37.436;2023-02-26T06:36:54;4.13;;;1.50;;
65162;SDS011;51751;55.714;37.436;2023-02-26T06:39:20;3.55;;;1.73;;
65162;SDS011;51751;55.714;37.436;2023-02-26T06:41:46;2.10;;;1.70;;
65162;SDS011;51751;55.714;37.436;2023-02-26T06:44:15;4.30;;;1.67;;
65162;SDS011;51751;55.714;37.436;2023-02-26T06:46:41;2.65;;;1.60;;
65162;SDS011;51751;55.714;37.436;2023-02-26T06:49:06;2.25;;;1.70;;
65162;SDS011;51751;55.714;37.436;2023-02-26T06:51:32;2.80;;;1.50;;
65162;SDS011;51751;55.714;37.436;2023-02-26T06:54:17;2.65;;;1.70;;
65162;SDS011;51751;55.714;37.436;2023-02-26T06:56:43;1.77;;;1.50;;
65162;SDS011;51751;55.714;37.436;2023-02-26T06:59:09;3.58;;;1.63;;
65162;SDS011;51751;55.714;37.436;2023-02-26T07:01:35;4.15;;;1.80;;
65162;SDS011;51751;55.714;37.436;2023-02-26T07:04:00;3.33;;;1.92;;
65162;SDS011;51751;55.714;37.436;2023-02-26T07:06:26;2.58;;;1.40;;
65162;SDS011;51751;55.714;37.436;2023-02-26T07:08:52;4.25;;;1.60;;
65162;SDS011;51751;55.714;37.436;2023-02-26T07:11:19;2.00;;;1.65;;
65162;SDS011;51751;55.714;37.436;2023-02-26T07:13:45;2.15;;;1.63;;
65162;SDS011;51751;55.714;37.436;2023-02-26T07:16:10;5.45;;;1.70;;
65162;SDS011;51751;55.714;37.436;2023-02-26T07:18:36;2.20;;;1.45;;
65162;SDS011;51751;55.714;37.436;2023-02-26T07:21:03;2.25;;;1.70;;
65162;SDS011;51751;55.714;37.436;2023-02-26T07:23:29;3.08;;;1.63;;
65162;SDS011;51751;55.714;37.436;2023-02-26T07:25:55;4.30;;;2.00;;
65162;SDS011;51751;55.714;37.436;2023-02-26T07:28:22;2.42;;;1.80;;
65162;SDS011;51751;55.714;37.436;2023-02-26T07:30:48;3.95;;;1.70;;
65162;SDS011;51751;55.714;37.436;2023-02-26T07:33:14;3.85;;;2.10;;
65162;SDS011;51751;55.714;37.436;2023-02-26T07:35:40;1.50;;;1.40;;
65162;SDS011;51751;55.714;37.436;2023-02-26T07:38:06;2.85;;;1.77;;
65162;SDS011;51751;55.714;37.436;2023-02-26T07:40:32;3.35;;;1.60;;
65162;SDS011;51751;55.714;37.436;2023-02-26T07:42:58;2.03;;;1.80;;
65162;SDS011;51751;55.714;37.436;2023-02-26T07:45:24;4.25;;;1.88;;
65162;SDS011;51751;55.714;37.436;2023-02-26T07:47:50;3.13;;;1.50;;
65162;SDS011;51751;55.714;37.436;2023-02-26T07:50:35;4.05;;;1.70;;
65162;SDS011;51751;55.714;37.436;2023-02-26T07:53:01;2.97;;;1.33;;
65162;SDS011;51751;55.714;37.436;2023-02-26T07:55:27;8.15;;;1.60;;
65162;SDS011;51751;55.714;37.436;2023-02-26T07:57:52;2.50;;;1.60;;
65162;SDS011;51751;55.714;37.436;2023-02-26T08:00:18;2.25;;;1.73;;
65162;SDS011;51751;55.714;37.436;2023-02-26T08:02:47;2.05;;;1.67;;
65162;SDS011;51751;55.714;37.436;2023-02-26T08:05:13;1.83;;;1.60;;
65162;SDS011;51751;55.714;37.436;2023-02-26T08:07:39;1.70;;;1.35;;
65162;SDS011;51751;55.714;37.436;2023-02-26T08:10:05;3.75;;;1.75;;
65162;SDS011;51751;55.714;37.436;2023-02-26T08:12:31;4.18;;;1.40;;
65162;SDS011;51751;55.714;37.436;2023-02-26T08:14:57;1.20;;;0.93;;
65162;SDS011;51751;55.714;37.436;2023-02-26T08:17:23;3.85;;;1.80;;
65162;SDS011;51751;55.714;37.436;2023-02-26T08:19:48;3.50;;;1.67;;
65162;SDS011;51751;55.714;37.436;2023-02-26T08:22:14;2.97;;;1.70;;
65162;SDS011;51751;55.714;37.436;2023-02-26T08:24:40;1.52;;;1.30;;
65162;SDS011;51751;55.714;37.436;2023-02-26T08:27:06;1.80;;;1.42;;
65162;SDS011;51751;55.714;37.436;2023-02-26T08:29:32;2.00;;;1.38;;
65162;SDS011;51751;55.714;37.436;2023-02-26T08:31:58;2.33;;;1.38;;
65162;SDS011;51751;55.714;37.436;2023-02-26T08:34:24;3.88;;;1.60;;
65162;SDS011;51751;55.714;37.436;2023-02-26T08:36:50;1.52;;;1.33;;
65162;SDS011;51751;55.714;37.436;2023-02-26T08:39:15;1.33;;;1.20;;
65162;SDS011;51751;55.714;37.436;2023-02-26T08:41:41;2.03;;;1.77;;
65162;SDS011;51751;55.714;37.436;2023-02-26T08:44:07;2.20;;;1.50;;
65162;SDS011;51751;55.714;37.436;2023-02-26T08:46:33;3.47;;;1.30;;
65162;SDS011;51751;55.714;37.436;2023-02-26T08:48:59;2.72;;;1.60;;
65162;SDS011;51751;55.714;37.436;2023-02-26T08:51:25;3.55;;;1.30;;
65162;SDS011;51751;55.714;37.436;2023-02-26T08:53:51;1.98;;;1.00;;
65162;SDS011;51751;55.714;37.436;2023-02-26T08:56:17;2.28;;;1.10;;
65162;SDS011;51751;55.714;37.436;2023-02-26T08:58:43;3.80;;;1.17;;
65162;SDS011;51751;55.714;37.436;2023-02-26T09:01:09;1.98;;;1.25;;
65162;SDS011;51751;55.714;37.436;2023-02-26T09:03:35;1.48;;;1.20;;
65162;SDS011;51751;55.714;37.436;2023-02-26T09:06:01;5.90;;;1.35;;
65162;SDS011;51751;55.714;37.436;2023-02-26T09:08:29;3.78;;;1.00;;
65162;SDS011;51751;55.714;37.436;2023-02-26T09:10:59;1.83;;;1.00;;
65162;SDS011;51751;55.714;37.436;2023-02-26T09:13:26;3.15;;;1.20;;
65162;SDS011;51751;55.714;37.436;2023-02-26T09:15:52;0.68;;;0.68;;
65162;SDS011;51751;55.714;37.436;2023-02-26T09:18:18;2.15;;;1.13;;
65162;SDS011;51751;55.714;37.436;2023-02-26T09:20:43;3.40;;;1.10;;
65162;SDS011;51751;55.714;37.436;2023-02-26T09:23:10;2.65;;;1.10;;
65162;SDS011;51751;55.714;37.436;2023-02-26T09:25:36;3.00;;;1.08;;
65162;SDS011;51751;55.714;37.436;2023-02-26T09:28:02;3.08;;;1.20;;
65162;SDS011;51751;55.714;37.436;2023-02-26T09:30:28;3.80;;;0.90;;
65162;SDS011;51751;55.714;37.436;2023-02-26T09:32:53;1.60;;;1.30;;
65162;SDS011;51751;55.714;37.436;2023-02-26T09:35:22;1.42;;;1.10;;
65162;SDS011;51751;55.714;37.436;2023-02-26T09:37:48;1.50;;;1.05;;
65162;SDS011;51751;55.714;37.436;2023-02-26T09:40:59;1.48;;;1.20;;
65162;SDS011;51751;55.714;37.436;2023-02-26T09:55:10;0.98;;;0.90;;
65162;SDS011;51751;55.714;37.436;2023-02-26T09:57:42;5.23;;;0.83;;
65162;SDS011;51751;55.714;37.436;2023-02-26T10:05:44;1.42;;;1.27;;
65162;SDS011;51751;55.714;37.436;2023-02-26T10:08:17;1.13;;;1.02;;
65162;SDS011;51751;55.714;37.436;2023-02-26T10:13:41;1.95;;;1.08;;
65162;SDS011;51751;55.714;37.436;2023-02-26T10:16:22;2.45;;;1.20;;
65162;SDS011;51751;55.714;37.436;2023-02-26T10:18:53;2.25;;;1.40;;
65162;SDS011;51751;55.714;37.436;2023-02-26T10:21:25;1.60;;;1.08;;
65162;SDS011;51751;55.714;37.436;2023-02-26T10:23:59;1.00;;;1.00;;
65162;SDS011;51751;55.714;37.436;2023-02-26T10:26:50;1.88;;;1.48;;
65162;SDS011;51751;55.714;37.436;2023-02-26T10:29:21;1.23;;;0.90;;
65162;SDS011;51751;55.714;37.436;2023-02-26T10:37:03;2.53;;;1.00;;
65162;SDS011;51751;55.714;37.436;2023-02-26T10:40:22;0.90;;;0.90;;
65162;SDS011;51751;55.714;37.436;2023-02-26T10:42:46;2.47;;;1.60;;
65162;SDS011;51751;55.714;37.436;2023-02-26T10:51:13;1.83;;;1.33;;
65162;SDS011;51751;55.714;37.436;2023-02-26T10:53:42;1.80;;;1.30;;
65162;SDS011;51751;55.714;37.436;2023-02-26T10:56:23;1.73;;;1.38;;
65162;SDS011;51751;55.714;37.436;2023-02-26T10:58:52;2.03;;;1.35;;
65162;SDS011;51751;55.714;37.436;2023-02-26T11:01:20;1.50;;;1.30;;
65162;SDS011;51751;55.714;37.436;2023-02-26T11:03:48;1.98;;;1.50;;
65162;SDS011;51751;55.714;37.436;2023-02-26T11:07:01;2.30;;;1.23;;
65162;SDS011;51751;55.714;37.436;2023-02-26T11:09:12;1.20;;;1.10;;
65162;SDS011;51751;55.714;37.436;2023-02-26T11:11:47;1.30;;;1.20;;
65162;SDS011;51751;55.714;37.436;2023-02-26T11:14:16;2.63;;;1.30;;
65162;SDS011;51751;55.714;37.436;2023-02-26T11:16:45;1.67;;;1.30;;
65162;SDS011;51751;55.714;37.436;2023-02-26T11:19:13;1.55;;;1.45;;
65162;SDS011;51751;55.714;37.436;2023-02-26T11:21:40;2.00;;;1.20;;
65162;SDS011;51751;55.714;37.436;2023-02-26T11:24:32;1.75;;;1.30;;
65162;SDS011;51751;55.714;37.436;2023-02-26T11:27:00;1.40;;;1.10;;
65162;SDS011;51751;55.714;37.436;2023-02-26T11:29:34;1.30;;;1.20;;
65162;SDS011;51751;55.714;37.436;2023-02-26T11:32:03;1.83;;;1.30;;
65162;SDS011;51751;55.714;37.436;2023-02-26T11:34:29;2.55;;;1.30;;
65162;SDS011;51751;55.714;37.436;2023-02-26T11:36:57;1.30;;;1.20;;
65162;SDS011;51751;55.714;37.436;2023-02-26T11:39:25;1.38;;;1.20;;
65162;SDS011;51751;55.714;37.436;2023-02-26T11:41:57;1.52;;;0.90;;
65162;SDS011;51751;55.714;37.436;2023-02-26T11:44:33;1.23;;;1.13;;
65162;SDS011;51751;55.714;37.436;2023-02-26T11:49:27;2.90;;;1.30;;
65162;SDS011;51751;55.714;37.436;2023-02-26T11:52:03;1.50;;;1.40;;
65162;SDS011;51751;55.714;37.436;2023-02-26T11:54:53;1.70;;;1.40;;
65162;SDS011;51751;55.714;37.436;2023-02-26T11:57:23;1.92;;;1.50;;
65162;SDS011;51751;55.714;37.436;2023-02-26T11:59:52;1.90;;;1.60;;
65162;SDS011;51751;55.714;37.436;2023-02-26T12:02:19;1.75;;;1.48;;
65162;SDS011;51751;55.714;37.436;2023-02-26T12:04:51;2.25;;;1.50;;
65162;SDS011;51751;55.714;37.436;2023-02-26T12:07:19;4.40;;;1.75;;
65162;SDS011;51751;55.714;37.436;2023-02-26T12:09:46;1.58;;;1.48;;
65162;SDS011;51751;55.714;37.436;2023-02-26T12:15:25;1.80;;;1.63;;
65162;SDS011;51751;55.714;37.436;2023-02-26T12:42:35;2.38;;;1.40;;
65162;SDS011;51751;55.714;37.436;2023-02-26T12:45:28;5.10;;;1.50;;
65162;SDS011;51751;55.714;37.436;2023-02-26T12:53:40;2.25;;;1.48;;
65162;SDS011;51751;55.714;37.436;2023-02-26T12:59:11;2.92;;;1.50;;
65162;SDS011;51751;55.714;37.436;2023-02-26T13:04:36;4.65;;;1.65;;
65162;SDS011;51751;55.714;37.436;2023-02-26T13:07:15;3.60;;;2.45;;
65162;SDS011;51751;55.714;37.436;2023-02-26T13:18:02;4.53;;;3.15;;
65162;SDS011;51751;55.714;37.436;2023-02-26T13:20:29;4.82;;;3.22;;
65162;SDS011;51751;55.714;37.436;2023-02-26T13:25:58;5.03;;;2.92;;
65162;SDS011;51751;55.714;37.436;2023-02-26T13:31:04;3.80;;;2.58;;
65162;SDS011;51751;55.714;37.436;2023-02-26T13:33:42;4.95;;;3.30;;
65162;SDS011;51751;55.714;37.436;2023-02-26T13:36:09;5.13;;;4.10;;
65162;SDS011;51751;55.714;37.436;2023-02-26T13:50:44;6.07;;;3.42;;
65162;SDS011;51751;55.714;37.436;2023-02-26T14:04:49;4.72;;;2.88;;
65162;SDS011;51751;55.714;37.436;2023-02-26T14:07:21;4.80;;;3.30;;
65162;SDS011;51751;55.714;37.436;2023-02-26T14:10:16;4.30;;;2.72;;
65162;SDS011;51751;55.714;37.436;2023-02-26T14:12:51;7.90;;;4.57;;
65162;SDS011;51751;55.714;37.436;2023-02-26T14:15:40;4.93;;;3.17;;
65162;SDS011;51751;55.714;37.436;2023-02-26T14:18:29;6.88;;;3.83;;
65162;SDS011;51751;55.714;37.436;2023-02-26T14:23:50;6.22;;;3.70;;
65162;SDS011;51751;55.714;37.436;2023-02-26T14:26:17;10.65;;;4.32;;
65162;SDS011;51751;55.714;37.436;2023-02-26T14:28:45;7.63;;;4.78;;
65162;SDS011;51751;55.714;37.436;2023-02-26T14:31:21;8.25;;;4.72;;
65162;SDS011;51751;55.714;37.436;2023-02-26T14:34:52;6.03;;;3.53;;
65162;SDS011;51751;55.714;37.436;2023-02-26T14:36:55;8.52;;;4.13;;
65162;SDS011;51751;55.714;37.436;2023-02-26T14:41:57;9.10;;;5.13;;
65162;SDS011;51751;55.714;37.436;2023-02-26T14:44:52;8.75;;;5.07;;
65162;SDS011;51751;55.714;37.436;2023-02-26T14:47:22;8.25;;;4.75;;
65162;SDS011;51751;55.714;37.436;2023-02-26T14:49:48;5.78;;;3.65;;
65162;SDS011;51751;55.714;37.436;2023-02-26T14:55:28;8.68;;;4.97;;
65162;SDS011;51751;55.714;37.436;2023-02-26T14:58:04;7.60;;;3.90;;
65162;SDS011;51751;55.714;37.436;2023-02-26T15:14:14;8.65;;;4.93;;
65162;SDS011;51751;55.714;37.436;2023-02-26T15:17:03;8.45;;;4.30;;
65162;SDS011;51751;55.714;37.436;2023-02-26T15:25:23;10.43;;;5.22;;
65162;SDS011;51751;55.714;37.436;2023-02-26T15:27:54;8.55;;;4.97;;
65162;SDS011;51751;55.714;37.436;2023-02-26T15:30:20;5.80;;;3.53;;
65162;SDS011;51751;55.714;37.436;2023-02-26T15:32:55;9.02;;;5.05;;
65162;SDS011;51751;55.714;37.436;2023-02-26T15:35:26;7.25;;;4.68;;
65162;SDS011;51751;55.714;37.436;2023-02-26T15:37:54;14.65;;;5.65;;
65162;SDS011;51751;55.714;37.436;2023-02-26T15:40:22;6.07;;;3.78;;
65162;SDS011;51751;55.714;37.436;2023-02-26T15:42:53;7.80;;;4.38;;
65162;SDS011;51751;55.714;37.436;2023-02-26T15:45:28;8.52;;;5.13;;
65162;SDS011;51751;55.714;37.436;2023-02-26T15:47:59;9.35;;;5.18;;
65162;SDS011;51751;55.714;37.436;2023-02-26T15:50:31;8.30;;;4.43;;
65162;SDS011;51751;55.714;37.436;2023-02-26T15:53:00;9.57;;;5.22;;
65162;SDS011;51751;55.714;37.436;2023-02-26T15:55:34;7.63;;;4.85;;
65162;SDS011;51751;55.714;37.436;2023-02-26T15:58:08;8.15;;;4.40;;
65162;SDS011;51751;55.714;37.436;2023-02-26T16:00:35;7.57;;;3.83;;
65162;SDS011;51751;55.714;37.436;2023-02-26T16:03:01;8.35;;;4.97;;
65162;SDS011;51751;55.714;37.436;2023-02-26T16:05:29;8.40;;;4.28;;
65162;SDS011;51751;55.714;37.436;2023-02-26T16:07:55;15.70;;;4.82;;
65162;SDS011;51751;55.714;37.436;2023-02-26T16:12:53;7.85;;;4.50;;
65162;SDS011;51751;55.714;37.436;2023-02-26T16:15:27;6.88;;;4.47;;
65162;SDS011;51751;55.714;37.436;2023-02-26T16:17:57;7.90;;;4.47;;
65162;SDS011;51751;55.714;37.436;2023-02-26T16:20:25;8.55;;;4.70;;
65162;SDS011;51751;55.714;37.436;2023-02-26T16:28:20;10.60;;;5.88;;
65162;SDS011;51751;55.714;37.436;2023-02-26T16:30:49;8.02;;;5.32;;
65162;SDS011;51751;55.714;37.436;2023-02-26T16:33:17;10.02;;;4.80;;
65162;SDS011;51751;55.714;37.436;2023-02-26T16:35:48;9.13;;;4.75;;
65162;SDS011;51751;55.714;37.436;2023-02-26T16:38:30;9.60;;;4.65;;
65162;SDS011;51751;55.714;37.436;2023-02-26T16:40:59;9.35;;;5.05;;
65162;SDS011;51751;55.714;37.436;2023-02-26T16:46:36;8.25;;;4.72;;
65162;SDS011;51751;55.714;37.436;2023-02-26T16:49:23;8.32;;;4.75;;
65162;SDS011;51751;55.714;37.436;2023-02-26T16:51:50;9.13;;;4.03;;
65162;SDS011;51751;55.714;37.436;2023-02-26T16:54:21;8.48;;;4.80;;
65162;SDS011;51751;55.714;37.436;2023-02-26T16:56:52;8.10;;;4.90;;
65162;SDS011;51751;55.714;37.436;2023-02-26T17:00:00;9.50;;;5.07;;
65162;SDS011;51751;55.714;37.436;2023-02-26T17:02:32;6.85;;;4.30;;
65162;SDS011;51751;55.714;37.436;2023-02-26T17:05:00;8.75;;;4.80;;
65162;SDS011;51751;55.714;37.436;2023-02-26T17:07:31;9.90;;;5.78;;
65162;SDS011;51751;55.714;37.436;2023-02-26T17:10:06;7.63;;;4.78;;
65162;SDS011;51751;55.714;37.436;2023-02-26T17:12:50;9.05;;;4.95;;
65162;SDS011;51751;55.714;37.436;2023-02-26T17:15:36;10.95;;;5.13;;
65162;SDS011;51751;55.714;37.436;2023-02-26T17:18:03;6.22;;;3.60;;
65162;SDS011;51751;55.714;37.436;2023-02-26T17:20:29;9.27;;;4.85;;
65162;SDS011;51751;55.714;37.436;2023-02-26T17:22:56;6.22;;;4.15;;
65162;SDS011;51751;55.714;37.436;2023-02-26T17:25:23;6.25;;;4.05;;
65162;SDS011;51751;55.714;37.436;2023-02-26T17:27:50;7.30;;;4.07;;
65162;SDS011;51751;55.714;37.436;2023-02-26T17:30:20;9.20;;;4.68;;
65162;SDS011;51751;55.714;37.436;2023-02-26T17:32:50;6.90;;;4.45;;
65162;SDS011;51751;55.714;37.436;2023-02-26T17:35:16;8.25;;;4.13;;
65162;SDS011;51751;55.714;37.436;2023-02-26T17:37:43;7.65;;;4.22;;
65162;SDS011;51751;55.714;37.436;2023-02-26T17:42:48;7.75;;;4.00;;
65162;SDS011;51751;55.714;37.436;2023-02-26T17:45:14;7.20;;;4.40;;
65162;SDS011;51751;55.714;37.436;2023-02-26T17:47:41;8.85;;;3.88;;
65162;SDS011;51751;55.714;37.436;2023-02-26T17:50:14;7.25;;;4.18;;
65162;SDS011;51751;55.714;37.436;2023-02-26T17:53:07;7.18;;;4.20;;
65162;SDS011;51751;55.714;37.436;2023-02-26T17:55:34;5.03;;;2.92;;
65162;SDS011;51751;55.714;37.436;2023-02-26T17:58:04;5.45;;;3.30;;
65162;SDS011;51751;55.714;37.436;2023-02-26T18:00:37;6.95;;;4.32;;
65162;SDS011;51751;55.714;37.436;2023-02-26T18:03:07;8.65;;;4.70;;
65162;SDS011;51751;55.714;37.436;2023-02-26T18:05:36;7.13;;;3.72;;
65162;SDS011;51751;55.714;37.436;2023-02-26T18:08:05;6.55;;;3.60;;
65162;SDS011;51751;55.714;37.436;2023-02-26T18:10:32;7.03;;;4.15;;
65162;SDS011;51751;55.714;37.436;2023-02-26T18:12:58;7.03;;;4.38;;
65162;SDS011;51751;55.714;37.436;2023-02-26T18:15:25;7.30;;;3.47;;
65162;SDS011;51751;55.714;37.436;2023-02-26T18:17:52;4.75;;;3.25;;
65162;SDS011;51751;55.714;37.436;2023-02-26T18:20:19;6.78;;;4.18;;
65162;SDS011;51751;55.714;37.436;2023-02-26T18:22:49;5.68;;;3.50;;